Main page
METAR-TAF:

METAR-TAF

Airports :

Mehrabad International Airport

Tehran, Iran

latitude: 35-41N, longitude: 051-21E, elevation: 1204 m

Current weather observation

The report was made 40 minutes ago, at 21:00 UTC
Calm wind
Temperature 14°C
Humidity 58%
Pressure 1023 hPa
Visibility 10 km or more
no clouds below 1500 m and no cumulonimbus

METAR: OIII 172100Z 00000KT CAVOK 14/06 Q1023 A3022

Time: 01:10 (21:40 UTC)

Forecast

The report was made 4 hours and 10 minutes ago, at 17:30 UTC
Forecast valid from 17 at 18 UTC to 18 at 24 UTC
Wind 8 kt from the Northeast
Visibility: 7000 m

TAF: OIII 171730Z 1718/1824 04004MPS 7000 NSC

Weather observations and forecasts of more than 4000 airports (METAR and TAF reports).

The available stations are represented by yellow and red dots on the map.

Hover mouse over dot to see the name of the station.

Then click to see weather observations and forecasts.

To change the map : click on the green buttons with a black cross to zoom in, on the green button with a dash to zoom out, or on the green arrows for adjacent maps.


METAR-TAF: